Terminal Aerodrome Forecast
Issued by NWS Twin Cities, MN

Home | Current Version | Previous Version | Graphics & Text | Print | Product List | Glossary On
Versions: 1 2 3 4 5 6 7 8 9 10 11 12 13 14 15 16 17 18 19 20
000
FTUS43 KMPX 220500
TAFEAU
TAF
KEAU 220540Z 2206/2306 15010KT P6SM BKN040
     FM220900 15008KT P6SM VCTS SCT040CB BKN100
      TEMPO 2209/2211 -TSRA BKN050CB OVC100
     FM221200 19010KT P6SM BKN100
     FM221400 24013KT P6SM SCT030
     FM221700 30014G21KT P6SM SCT040 SCT250
     FM230000 34007KT P6SM FEW250=

USA.gov is the U.S. government's official web portal to all federal, state and local government web resources and services.